CheckWX is a tool to help pilots better visualize weather data.  It is not intended as a substitute for an official pre-flight weather briefing.

21:09:23 UTC

KPEO METAR
Penn Yan Airport
Penn Yan, New York, USA
Current

16 mins ago

KPEO 182053Z AUTO 32006KT 4SM -SN SCT022 OVC028 M06/M09 A3012 RMK AO2 SLP216 P0000 60000 T10611094 51032
Observed
Feb-18 @ 20:53 UTC
Wind
  • 320° at 6 KTS
Visibility
4 SM
Flight Rules
MVFR
Conditions
Light Snow
Cloud Levels
  • Scattered at 2,200' AGL
  • Overcast at 2,800' AGL
Temperature
-6°C / 21°F
Dewpoint
-9°C / 16°F
Humidity
80%
Altimeter
30.12" Hg
Pressure
1021.6 hPa
Current Rain
0.01"
Previous

1 hour ago

KPEO 181953Z AUTO 32012KT 3SM -SN OVC024 M06/M10 A3009 RMK AO2 SLP207 P0000 T10611100
Observed
Feb-18 @ 19:53 UTC
Wind
  • 320° at 12 KTS
Visibility
3 SM
Flight Rules
MVFR
Conditions
Light Snow
Cloud Levels
  • Overcast at 2,400' AGL
Temperature
-6°C / 21°F
Dewpoint
-10°C / 14°F
Humidity
74%
Altimeter
30.09" Hg
Pressure
1020.7 hPa
Current Rain
0.01"
Previous

2 hours ago

KPEO 181918Z AUTO 31009KT 2 1/2SM -SN OVC022 M06/M10 A3008 RMK AO2 P0000 T10611100
Observed
Feb-18 @ 19:18 UTC
Wind
  • 310° at 9 KTS
Visibility
2 1/2 SM
Flight Rules
IFR
Conditions
Light Snow
Cloud Levels
  • Overcast at 2,200' AGL
Temperature
-6°C / 21°F
Dewpoint
-10°C / 14°F
Humidity
74%
Altimeter
30.08" Hg
Pressure
1018.62 hPa
Current Rain
0.01"